sensor_id;sensor_type;location;lat;lon;timestamp;temperature;humidity
15262;DHT22;7733;51.554;13.590;2022-08-19T00:01:34;21.70;99.90
15262;DHT22;7733;51.554;13.590;2022-08-19T00:04:05;21.70;99.90
15262;DHT22;7733;51.554;13.590;2022-08-19T00:06:34;21.60;99.90
15262;DHT22;7733;51.554;13.590;2022-08-19T00:09:03;21.60;99.90
15262;DHT22;7733;51.554;13.590;2022-08-19T00:11:31;21.50;99.90
15262;DHT22;7733;51.554;13.590;2022-08-19T00:13:58;21.50;99.90
15262;DHT22;7733;51.554;13.590;2022-08-19T00:16:24;21.50;99.90
15262;DHT22;7733;51.554;13.590;2022-08-19T00:18:50;21.50;99.90
15262;DHT22;7733;51.554;13.590;2022-08-19T00:21:16;21.40;99.90
15262;DHT22;7733;51.554;13.590;2022-08-19T00:23:42;21.40;99.90
15262;DHT22;7733;51.554;13.590;2022-08-19T00:26:10;21.40;99.90
15262;DHT22;7733;51.554;13.590;2022-08-19T00:28:36;21.40;99.90
15262;DHT22;7733;51.554;13.590;2022-08-19T00:31:04;21.50;99.90
15262;DHT22;7733;51.554;13.590;2022-08-19T00:33:32;21.40;99.90
15262;DHT22;7733;51.554;13.590;2022-08-19T00:35:59;21.50;99.90
15262;DHT22;7733;51.554;13.590;2022-08-19T00:38:30;21.40;99.90
15262;DHT22;7733;51.554;13.590;2022-08-19T00:40:56;21.30;99.90
15262;DHT22;7733;51.554;13.590;2022-08-19T00:43:23;21.30;99.90
15262;DHT22;7733;51.554;13.590;2022-08-19T00:45:51;21.30;99.90
15262;DHT22;7733;51.554;13.590;2022-08-19T00:48:18;21.30;99.90
15262;DHT22;7733;51.554;13.590;2022-08-19T00:50:48;21.30;99.90
15262;DHT22;7733;51.554;13.590;2022-08-19T00:53:18;21.10;99.90
15262;DHT22;7733;51.554;13.590;2022-08-19T00:55:46;21.20;99.90
15262;DHT22;7733;51.554;13.590;2022-08-19T00:58:17;21.20;99.90
15262;DHT22;7733;51.554;13.590;2022-08-19T01:00:45;21.10;99.90
15262;DHT22;7733;51.554;13.590;2022-08-19T01:03:16;21.10;99.90
15262;DHT22;7733;51.554;13.590;2022-08-19T01:05:44;21.10;99.90
15262;DHT22;7733;51.554;13.590;2022-08-19T01:08:11;21.10;99.90
15262;DHT22;7733;51.554;13.590;2022-08-19T01:10:43;21.10;99.90
15262;DHT22;7733;51.554;13.590;2022-08-19T01:13:15;21.10;99.90
15262;DHT22;7733;51.554;13.590;2022-08-19T01:15:47;21.10;99.90
15262;DHT22;7733;51.554;13.590;2022-08-19T01:18:18;21.10;99.90
15262;DHT22;7733;51.554;13.590;2022-08-19T01:20:46;21.10;99.90
15262;DHT22;7733;51.554;13.590;2022-08-19T01:23:13;21.00;99.90
15262;DHT22;7733;51.554;13.590;2022-08-19T01:25:51;20.90;99.90
15262;DHT22;7733;51.554;13.590;2022-08-19T01:28:20;21.00;99.90
15262;DHT22;7733;51.554;13.590;2022-08-19T01:30:52;21.10;99.90
15262;DHT22;7733;51.554;13.590;2022-08-19T01:33:19;21.10;99.90
15262;DHT22;7733;51.554;13.590;2022-08-19T01:35:46;21.10;99.90
15262;DHT22;7733;51.554;13.590;2022-08-19T01:38:23;21.10;99.90
15262;DHT22;7733;51.554;13.590;2022-08-19T01:40:52;21.10;99.90
15262;DHT22;7733;51.554;13.590;2022-08-19T01:43:18;21.10;99.90
15262;DHT22;7733;51.554;13.590;2022-08-19T01:45:44;21.10;99.90
15262;DHT22;7733;51.554;13.590;2022-08-19T01:48:11;21.10;99.90
15262;DHT22;7733;51.554;13.590;2022-08-19T01:50:37;21.00;99.90
15262;DHT22;7733;51.554;13.590;2022-08-19T01:53:05;21.00;99.90
15262;DHT22;7733;51.554;13.590;2022-08-19T01:55:36;21.00;99.90
15262;DHT22;7733;51.554;13.590;2022-08-19T01:58:05;21.00;99.90
15262;DHT22;7733;51.554;13.590;2022-08-19T02:00:33;21.00;99.90
15262;DHT22;7733;51.554;13.590;2022-08-19T02:02:58;21.00;99.90
15262;DHT22;7733;51.554;13.590;2022-08-19T02:05:26;21.10;99.90
15262;DHT22;7733;51.554;13.590;2022-08-19T02:07:54;21.00;99.90
15262;DHT22;7733;51.554;13.590;2022-08-19T02:10:21;21.00;99.90
15262;DHT22;7733;51.554;13.590;2022-08-19T02:12:48;21.00;99.90
15262;DHT22;7733;51.554;13.590;2022-08-19T02:15:15;21.00;99.90
15262;DHT22;7733;51.554;13.590;2022-08-19T02:17:42;21.00;99.90
15262;DHT22;7733;51.554;13.590;2022-08-19T02:20:08;21.00;99.90
15262;DHT22;7733;51.554;13.590;2022-08-19T02:22:34;20.90;99.90
15262;DHT22;7733;51.554;13.590;2022-08-19T02:25:01;20.90;99.90
15262;DHT22;7733;51.554;13.590;2022-08-19T02:27:27;20.90;99.90
15262;DHT22;7733;51.554;13.590;2022-08-19T02:29:53;20.90;99.90
15262;DHT22;7733;51.554;13.590;2022-08-19T02:32:19;20.90;99.90
15262;DHT22;7733;51.554;13.590;2022-08-19T02:34:46;20.90;99.90
15262;DHT22;7733;51.554;13.590;2022-08-19T02:37:13;20.90;99.90
15262;DHT22;7733;51.554;13.590;2022-08-19T02:39:58;20.90;99.90
15262;DHT22;7733;51.554;13.590;2022-08-19T02:42:24;20.90;99.90
15262;DHT22;7733;51.554;13.590;2022-08-19T02:44:50;20.90;99.90
15262;DHT22;7733;51.554;13.590;2022-08-19T02:47:17;20.80;99.90
15262;DHT22;7733;51.554;13.590;2022-08-19T02:49:44;20.80;99.90
15262;DHT22;7733;51.554;13.590;2022-08-19T02:52:11;20.90;99.90
15262;DHT22;7733;51.554;13.590;2022-08-19T02:54:37;20.90;99.90
15262;DHT22;7733;51.554;13.590;2022-08-19T02:57:04;20.80;99.90
15262;DHT22;7733;51.554;13.590;2022-08-19T02:59:32;20.90;99.90
15262;DHT22;7733;51.554;13.590;2022-08-19T03:01:58;20.90;99.90
15262;DHT22;7733;51.554;13.590;2022-08-19T03:04:23;20.80;99.90
15262;DHT22;7733;51.554;13.590;2022-08-19T03:06:49;20.80;99.90
15262;DHT22;7733;51.554;13.590;2022-08-19T03:09:17;20.80;99.90
15262;DHT22;7733;51.554;13.590;2022-08-19T03:11:44;20.90;99.90
15262;DHT22;7733;51.554;13.590;2022-08-19T03:14:10;20.90;99.90
15262;DHT22;7733;51.554;13.590;2022-08-19T03:16:46;20.80;99.90
15262;DHT22;7733;51.554;13.590;2022-08-19T03:19:15;20.80;99.90
15262;DHT22;7733;51.554;13.590;2022-08-19T03:21:43;20.90;99.90
15262;DHT22;7733;51.554;13.590;2022-08-19T03:24:11;20.90;99.90
15262;DHT22;7733;51.554;13.590;2022-08-19T03:26:40;20.90;99.90
15262;DHT22;7733;51.554;13.590;2022-08-19T03:29:08;20.90;99.90
15262;DHT22;7733;51.554;13.590;2022-08-19T03:31:36;21.00;99.90
15262;DHT22;7733;51.554;13.590;2022-08-19T03:34:03;20.90;99.90
15262;DHT22;7733;51.554;13.590;2022-08-19T03:36:29;20.70;99.90
15262;DHT22;7733;51.554;13.590;2022-08-19T03:38:57;20.70;99.90
15262;DHT22;7733;51.554;13.590;2022-08-19T03:41:32;20.70;99.90
15262;DHT22;7733;51.554;13.590;2022-08-19T03:44:02;20.70;99.90
15262;DHT22;7733;51.554;13.590;2022-08-19T03:46:31;20.70;99.90
15262;DHT22;7733;51.554;13.590;2022-08-19T03:49:00;20.70;99.90
15262;DHT22;7733;51.554;13.590;2022-08-19T03:51:36;20.60;99.90
15262;DHT22;7733;51.554;13.590;2022-08-19T03:54:07;20.50;99.90
15262;DHT22;7733;51.554;13.590;2022-08-19T03:56:36;20.60;99.90
15262;DHT22;7733;51.554;13.590;2022-08-19T03:59:04;20.50;99.90
15262;DHT22;7733;51.554;13.590;2022-08-19T04:01:31;20.60;99.90
15262;DHT22;7733;51.554;13.590;2022-08-19T04:03:57;20.50;99.90
15262;DHT22;7733;51.554;13.590;2022-08-19T04:06:29;20.50;99.90
15262;DHT22;7733;51.554;13.590;2022-08-19T04:08:56;20.60;99.90
15262;DHT22;7733;51.554;13.590;2022-08-19T04:11:34;20.70;99.90
15262;DHT22;7733;51.554;13.590;2022-08-19T04:14:01;20.50;99.90
15262;DHT22;7733;51.554;13.590;2022-08-19T04:16:28;20.60;99.90
15262;DHT22;7733;51.554;13.590;2022-08-19T04:18:55;20.60;99.90
15262;DHT22;7733;51.554;13.590;2022-08-19T04:21:24;20.70;99.90
15262;DHT22;7733;51.554;13.590;2022-08-19T04:23:51;20.70;99.90
15262;DHT22;7733;51.554;13.590;2022-08-19T04:26:20;20.60;99.90
15262;DHT22;7733;51.554;13.590;2022-08-19T04:28:49;20.60;99.90
15262;DHT22;7733;51.554;13.590;2022-08-19T04:31:19;20.50;99.90
